sensor_id;sensor_type;location;lat;lon;timestamp;temperature;humidity
23731;DHT22;12046;44.702;10.622;2023-01-01T00:00:12;10.80;99.90
23731;DHT22;12046;44.702;10.622;2023-01-01T00:02:38;10.60;99.90
23731;DHT22;12046;44.702;10.622;2023-01-01T00:05:06;10.70;99.90
23731;DHT22;12046;44.702;10.622;2023-01-01T00:07:32;10.60;99.90
23731;DHT22;12046;44.702;10.622;2023-01-01T00:09:58;10.60;99.90
23731;DHT22;12046;44.702;10.622;2023-01-01T00:12:43;10.70;99.90
23731;DHT22;12046;44.702;10.622;2023-01-01T00:15:09;10.60;99.90
23731;DHT22;12046;44.702;10.622;2023-01-01T00:17:35;10.70;99.90
23731;DHT22;12046;44.702;10.622;2023-01-01T00:20:01;10.70;99.90
23731;DHT22;12046;44.702;10.622;2023-01-01T00:22:27;10.70;99.90
23731;DHT22;12046;44.702;10.622;2023-01-01T00:24:53;10.70;99.90
23731;DHT22;12046;44.702;10.622;2023-01-01T00:27:19;10.70;99.90
23731;DHT22;12046;44.702;10.622;2023-01-01T00:29:45;10.70;99.90
23731;DHT22;12046;44.702;10.622;2023-01-01T00:32:11;10.70;99.90
23731;DHT22;12046;44.702;10.622;2023-01-01T00:34:37;10.70;99.90
23731;DHT22;12046;44.702;10.622;2023-01-01T00:37:03;10.70;99.90
23731;DHT22;12046;44.702;10.622;2023-01-01T00:39:29;10.80;99.90
23731;DHT22;12046;44.702;10.622;2023-01-01T00:41:55;10.70;99.90
23731;DHT22;12046;44.702;10.622;2023-01-01T00:44:21;10.60;99.90
23731;DHT22;12046;44.702;10.622;2023-01-01T00:46:47;10.70;99.90
23731;DHT22;12046;44.702;10.622;2023-01-01T00:49:13;10.60;99.90
23731;DHT22;12046;44.702;10.622;2023-01-01T00:51:39;10.70;99.90
23731;DHT22;12046;44.702;10.622;2023-01-01T00:54:05;10.70;99.90
23731;DHT22;12046;44.702;10.622;2023-01-01T00:56:31;10.70;99.90
23731;DHT22;12046;44.702;10.622;2023-01-01T00:58:57;10.70;99.90
23731;DHT22;12046;44.702;10.622;2023-01-01T01:01:23;10.70;99.90
23731;DHT22;12046;44.702;10.622;2023-01-01T01:03:49;10.60;99.90
23731;DHT22;12046;44.702;10.622;2023-01-01T01:06:16;10.60;99.90
23731;DHT22;12046;44.702;10.622;2023-01-01T01:08:45;10.60;99.90
23731;DHT22;12046;44.702;10.622;2023-01-01T01:11:19;10.50;99.90
23731;DHT22;12046;44.702;10.622;2023-01-01T01:13:47;10.50;99.90
23731;DHT22;12046;44.702;10.622;2023-01-01T01:16:16;10.50;99.90
23731;DHT22;12046;44.702;10.622;2023-01-01T01:18:43;10.40;99.90
23731;DHT22;12046;44.702;10.622;2023-01-01T01:21:09;10.40;99.90
23731;DHT22;12046;44.702;10.622;2023-01-01T01:23:36;10.40;99.90
23731;DHT22;12046;44.702;10.622;2023-01-01T01:26:10;10.30;99.90
23731;DHT22;12046;44.702;10.622;2023-01-01T01:28:37;10.40;99.90
23731;DHT22;12046;44.702;10.622;2023-01-01T01:31:04;10.40;99.90
23731;DHT22;12046;44.702;10.622;2023-01-01T01:33:30;10.30;99.90
23731;DHT22;12046;44.702;10.622;2023-01-01T01:35:56;10.30;99.90
23731;DHT22;12046;44.702;10.622;2023-01-01T01:38:22;10.30;99.90
23731;DHT22;12046;44.702;10.622;2023-01-01T01:40:48;10.30;99.90
23731;DHT22;12046;44.702;10.622;2023-01-01T01:46:09;10.30;99.90
23731;DHT22;12046;44.702;10.622;2023-01-01T01:48:40;10.20;99.90
23731;DHT22;12046;44.702;10.622;2023-01-01T01:51:07;10.20;99.90
23731;DHT22;12046;44.702;10.622;2023-01-01T01:53:37;10.20;99.90
23731;DHT22;12046;44.702;10.622;2023-01-01T01:56:09;10.10;99.90
23731;DHT22;12046;44.702;10.622;2023-01-01T01:58:37;10.10;99.90
23731;DHT22;12046;44.702;10.622;2023-01-01T02:01:03;10.00;99.90
23731;DHT22;12046;44.702;10.622;2023-01-01T02:03:46;10.00;99.90
23731;DHT22;12046;44.702;10.622;2023-01-01T02:06:14;10.00;99.90
23731;DHT22;12046;44.702;10.622;2023-01-01T02:08:40;10.00;99.90
23731;DHT22;12046;44.702;10.622;2023-01-01T02:11:06;10.00;99.90
23731;DHT22;12046;44.702;10.622;2023-01-01T02:13:32;10.00;99.90
23731;DHT22;12046;44.702;10.622;2023-01-01T02:16:07;9.90;99.90
23731;DHT22;12046;44.702;10.622;2023-01-01T02:21:33;9.90;99.90
23731;DHT22;12046;44.702;10.622;2023-01-01T02:30:04;9.80;99.90
23731;DHT22;12046;44.702;10.622;2023-01-01T02:32:36;9.70;99.90
23731;DHT22;12046;44.702;10.622;2023-01-01T02:35:11;9.70;99.90
23731;DHT22;12046;44.702;10.622;2023-01-01T02:37:58;9.60;99.90
23731;DHT22;12046;44.702;10.622;2023-01-01T02:40:26;9.50;99.90
23731;DHT22;12046;44.702;10.622;2023-01-01T02:42:54;9.40;99.90
23731;DHT22;12046;44.702;10.622;2023-01-01T02:45:21;9.40;99.90
23731;DHT22;12046;44.702;10.622;2023-01-01T02:47:47;9.40;99.90
23731;DHT22;12046;44.702;10.622;2023-01-01T02:50:18;9.40;99.90
23731;DHT22;12046;44.702;10.622;2023-01-01T02:53:05;9.40;99.90
23731;DHT22;12046;44.702;10.622;2023-01-01T03:01:36;9.30;99.90
23731;DHT22;12046;44.702;10.622;2023-01-01T03:04:28;9.40;99.90
23731;DHT22;12046;44.702;10.622;2023-01-01T03:09:53;9.50;99.90
23731;DHT22;12046;44.702;10.622;2023-01-01T03:14:59;9.60;99.90
23731;DHT22;12046;44.702;10.622;2023-01-01T03:19:57;9.50;99.90
23731;DHT22;12046;44.702;10.622;2023-01-01T03:22:28;9.50;99.90
23731;DHT22;12046;44.702;10.622;2023-01-01T03:25:18;9.50;99.90
23731;DHT22;12046;44.702;10.622;2023-01-01T03:27:49;9.60;99.90
23731;DHT22;12046;44.702;10.622;2023-01-01T03:30:19;9.40;99.90
23731;DHT22;12046;44.702;10.622;2023-01-01T03:33:14;9.30;99.90
23731;DHT22;12046;44.702;10.622;2023-01-01T03:35:48;9.30;99.90
23731;DHT22;12046;44.702;10.622;2023-01-01T03:40:46;9.40;99.90
23731;DHT22;12046;44.702;10.622;2023-01-01T03:43:20;9.30;99.90
23731;DHT22;12046;44.702;10.622;2023-01-01T03:45:50;9.30;99.90
23731;DHT22;12046;44.702;10.622;2023-01-01T03:48:18;9.30;99.90
23731;DHT22;12046;44.702;10.622;2023-01-01T03:51:09;9.20;99.90
23731;DHT22;12046;44.702;10.622;2023-01-01T03:53:41;9.00;99.90
23731;DHT22;12046;44.702;10.622;2023-01-01T03:56:20;9.00;99.90
23731;DHT22;12046;44.702;10.622;2023-01-01T03:58:55;9.10;99.90
23731;DHT22;12046;44.702;10.622;2023-01-01T04:01:31;9.20;99.90
23731;DHT22;12046;44.702;10.622;2023-01-01T04:03:59;9.20;99.90
23731;DHT22;12046;44.702;10.622;2023-01-01T04:06:26;9.30;99.90
23731;DHT22;12046;44.702;10.622;2023-01-01T04:08:55;9.30;99.90
23731;DHT22;12046;44.702;10.622;2023-01-01T04:11:25;9.40;99.90
23731;DHT22;12046;44.702;10.622;2023-01-01T04:14:10;9.50;99.90
23731;DHT22;12046;44.702;10.622;2023-01-01T04:16:36;9.50;99.90
23731;DHT22;12046;44.702;10.622;2023-01-01T04:19:02;9.60;99.90
23731;DHT22;12046;44.702;10.622;2023-01-01T04:21:32;9.70;99.90
23731;DHT22;12046;44.702;10.622;2023-01-01T04:23:58;9.70;99.90
23731;DHT22;12046;44.702;10.622;2023-01-01T04:26:24;9.60;99.90
23731;DHT22;12046;44.702;10.622;2023-01-01T04:28:50;9.50;99.90
23731;DHT22;12046;44.702;10.622;2023-01-01T04:31:15;9.50;99.90
23731;DHT22;12046;44.702;10.622;2023-01-01T04:33:41;9.60;99.90
23731;DHT22;12046;44.702;10.622;2023-01-01T04:36:09;9.60;99.90
23731;DHT22;12046;44.702;10.622;2023-01-01T04:38:36;9.60;99.90
23731;DHT22;12046;44.702;10.622;2023-01-01T04:41:03;9.60;99.90
23731;DHT22;12046;44.702;10.622;2023-01-01T04:43:30;9.50;99.90
23731;DHT22;12046;44.702;10.622;2023-01-01T04:45:57;9.40;99.90
23731;DHT22;12046;44.702;10.622;2023-01-01T04:48:25;9.30;99.90
23731;DHT22;12046;44.702;10.622;2023-01-01T04:50:59;9.30;99.90
23731;DHT22;12046;44.702;10.622;2023-01-01T04:53:28;9.40;99.90
23731;DHT22;12046;44.702;10.622;2023-01-01T04:55:55;9.50;99.90
23731;DHT22;12046;44.702;10.622;2023-01-01T04:58:21;9.50;99.90
23731;DHT22;12046;44.702;10.622;2023-01-01T05:00:50;9.30;99.90
23731;DHT22;12046;44.702;10.622;2023-01-01T05:03:16;9.30;99.90
23731;DHT22;12046;44.702;10.622;2023-01-01T05:05:43;9.30;99.90
23731;DHT22;12046;44.702;10.622;2023-01-01T05:08:08;9.40;99.90
23731;DHT22;12046;44.702;10.622;2023-01-01T05:10:34;9.40;99.90
23731;DHT22;12046;44.702;10.622;2023-01-01T05:13:00;9.40;99.90
23731;DHT22;12046;44.702;10.622;2023-01-01T05:15:26;9.40;99.90
23731;DHT22;12046;44.702;10.622;2023-01-01T05:17:53;9.50;99.90
23731;DHT22;12046;44.702;10.622;2023-01-01T05:20:19;9.40;99.90
23731;DHT22;12046;44.702;10.622;2023-01-01T05:22:45;9.40;99.90
23731;DHT22;12046;44.702;10.622;2023-01-01T05:25:11;9.30;99.90
23731;DHT22;12046;44.702;10.622;2023-01-01T05:27:37;9.30;99.90
23731;DHT22;12046;44.702;10.622;2023-01-01T05:30:03;9.30;99.90
23731;DHT22;12046;44.702;10.622;2023-01-01T05:32:31;9.30;99.90
23731;DHT22;12046;44.702;10.622;2023-01-01T05:34:57;9.30;99.90
23731;DHT22;12046;44.702;10.622;2023-01-01T05:37:23;9.30;99.90
23731;DHT22;12046;44.702;10.622;2023-01-01T05:39:49;9.30;99.90
23731;DHT22;12046;44.702;10.622;2023-01-01T05:42:15;9.30;99.90
23731;DHT22;12046;44.702;10.622;2023-01-01T05:44:41;9.30;99.90
23731;DHT22;12046;44.702;10.622;2023-01-01T05:47:08;9.30;99.90
23731;DHT22;12046;44.702;10.622;2023-01-01T05:49:34;9.30;99.90
23731;DHT22;12046;44.702;10.622;2023-01-01T05:52:01;9.30;99.90
23731;DHT22;12046;44.702;10.622;2023-01-01T05:54:27;9.30;99.90
23731;DHT22;12046;44.702;10.622;2023-01-01T05:56:52;9.30;99.90
23731;DHT22;12046;44.702;10.622;2023-01-01T05:59:18;9.10;99.90
23731;DHT22;12046;44.702;10.622;2023-01-01T06:01:44;9.20;99.90
23731;DHT22;12046;44.702;10.622;2023-01-01T06:04:10;9.20;99.90
23731;DHT22;12046;44.702;10.622;2023-01-01T06:06:36;9.20;99.90
23731;DHT22;12046;44.702;10.622;2023-01-01T06:09:03;9.20;99.90
23731;DHT22;12046;44.702;10.622;2023-01-01T06:11:30;9.10;99.90
23731;DHT22;12046;44.702;10.622;2023-01-01T06:13:58;9.00;99.90
23731;DHT22;12046;44.702;10.622;2023-01-01T06:16:25;8.90;99.90
23731;DHT22;12046;44.702;10.622;2023-01-01T06:18:51;8.90;99.90
23731;DHT22;12046;44.702;10.622;2023-01-01T06:21:22;8.90;99.90
23731;DHT22;12046;44.702;10.622;2023-01-01T06:23:49;9.00;99.90
23731;DHT22;12046;44.702;10.622;2023-01-01T06:26:20;9.00;99.90
23731;DHT22;12046;44.702;10.622;2023-01-01T06:28:47;9.00;99.90
23731;DHT22;12046;44.702;10.622;2023-01-01T06:31:15;9.10;99.90
23731;DHT22;12046;44.702;10.622;2023-01-01T06:33:42;9.10;99.90
23731;DHT22;12046;44.702;10.622;2023-01-01T06:36:09;9.10;99.90
23731;DHT22;12046;44.702;10.622;2023-01-01T06:38:38;9.10;99.90
23731;DHT22;12046;44.702;10.622;2023-01-01T06:41:06;9.10;99.90
23731;DHT22;12046;44.702;10.622;2023-01-01T06:43:34;9.10;99.90
23731;DHT22;12046;44.702;10.622;2023-01-01T06:48:41;9.10;99.90
23731;DHT22;12046;44.702;10.622;2023-01-01T06:51:15;9.10;99.90
23731;DHT22;12046;44.702;10.622;2023-01-01T06:53:41;9.10;99.90
23731;DHT22;12046;44.702;10.622;2023-01-01T06:56:08;9.10;99.90
23731;DHT22;12046;44.702;10.622;2023-01-01T06:58:34;9.10;99.90
23731;DHT22;12046;44.702;10.622;2023-01-01T07:01:13;9.00;99.90
23731;DHT22;12046;44.702;10.622;2023-01-01T07:03:40;9.10;99.90
23731;DHT22;12046;44.702;10.622;2023-01-01T07:06:06;9.00;99.90
23731;DHT22;12046;44.702;10.622;2023-01-01T07:08:33;9.10;99.90
23731;DHT22;12046;44.702;10.622;2023-01-01T07:10:59;9.10;99.90
23731;DHT22;12046;44.702;10.622;2023-01-01T07:13:26;9.10;99.90
23731;DHT22;12046;44.702;10.622;2023-01-01T07:15:53;9.20;99.90
23731;DHT22;12046;44.702;10.622;2023-01-01T07:18:23;9.20;99.90
23731;DHT22;12046;44.702;10.622;2023-01-01T07:20:57;9.30;99.90
23731;DHT22;12046;44.702;10.622;2023-01-01T07:23:25;9.30;99.90
23731;DHT22;12046;44.702;10.622;2023-01-01T07:25:52;9.30;99.90
23731;DHT22;12046;44.702;10.622;2023-01-01T07:28:19;9.30;99.90
23731;DHT22;12046;44.702;10.622;2023-01-01T07:30:45;9.20;99.90
23731;DHT22;12046;44.702;10.622;2023-01-01T07:33:12;9.30;99.90
23731;DHT22;12046;44.702;10.622;2023-01-01T07:35:39;9.20;99.90
23731;DHT22;12046;44.702;10.622;2023-01-01T07:38:05;9.20;99.90
23731;DHT22;12046;44.702;10.622;2023-01-01T07:40:32;9.30;99.90
23731;DHT22;12046;44.702;10.622;2023-01-01T07:42:58;9.40;99.90
23731;DHT22;12046;44.702;10.622;2023-01-01T07:45:24;9.30;99.90
23731;DHT22;12046;44.702;10.622;2023-01-01T07:47:53;9.50;99.90
23731;DHT22;12046;44.702;10.622;2023-01-01T07:50:20;9.50;99.90
23731;DHT22;12046;44.702;10.622;2023-01-01T07:52:46;9.50;99.90
23731;DHT22;12046;44.702;10.622;2023-01-01T07:55:14;9.20;99.90
23731;DHT22;12046;44.702;10.622;2023-01-01T07:57:42;9.10;99.90
23731;DHT22;12046;44.702;10.622;2023-01-01T08:00:11;9.00;99.90
23731;DHT22;12046;44.702;10.622;2023-01-01T08:02:38;9.20;99.90
23731;DHT22;12046;44.702;10.622;2023-01-01T08:05:04;9.00;99.90
23731;DHT22;12046;44.702;10.622;2023-01-01T08:07:30;9.00;99.90
23731;DHT22;12046;44.702;10.622;2023-01-01T08:09:56;9.10;99.90
23731;DHT22;12046;44.702;10.622;2023-01-01T08:12:23;9.10;99.90
23731;DHT22;12046;44.702;10.622;2023-01-01T08:14:50;9.10;99.90
23731;DHT22;12046;44.702;10.622;2023-01-01T08:17:15;9.00;99.90
23731;DHT22;12046;44.702;10.622;2023-01-01T08:19:42;9.00;99.90
23731;DHT22;12046;44.702;10.622;2023-01-01T08:22:09;9.20;99.90
23731;DHT22;12046;44.702;10.622;2023-01-01T08:24:36;9.50;99.90
23731;DHT22;12046;44.702;10.622;2023-01-01T08:27:01;9.50;99.90
23731;DHT22;12046;44.702;10.622;2023-01-01T08:29:27;9.50;99.90
23731;DHT22;12046;44.702;10.622;2023-01-01T08:31:53;9.50;99.90
23731;DHT22;12046;44.702;10.622;2023-01-01T08:34:19;9.30;99.90
23731;DHT22;12046;44.702;10.622;2023-01-01T08:36:45;9.20;99.90
23731;DHT22;12046;44.702;10.622;2023-01-01T08:39:11;9.30;99.90
23731;DHT22;12046;44.702;10.622;2023-01-01T08:41:37;9.40;99.90
23731;DHT22;12046;44.702;10.622;2023-01-01T08:44:03;9.60;99.90
23731;DHT22;12046;44.702;10.622;2023-01-01T08:46:29;9.70;99.90
23731;DHT22;12046;44.702;10.622;2023-01-01T08:48:55;10.00;99.90
23731;DHT22;12046;44.702;10.622;2023-01-01T08:51:20;10.20;99.90
23731;DHT22;12046;44.702;10.622;2023-01-01T08:53:46;10.40;99.90
23731;DHT22;12046;44.702;10.622;2023-01-01T08:56:12;10.60;99.90
23731;DHT22;12046;44.702;10.622;2023-01-01T08:58:41;10.60;99.90
23731;DHT22;12046;44.702;10.622;2023-01-01T09:01:07;10.80;99.90
23731;DHT22;12046;44.702;10.622;2023-01-01T09:03:34;10.90;99.90
23731;DHT22;12046;44.702;10.622;2023-01-01T09:06:00;10.70;99.90
23731;DHT22;12046;44.702;10.622;2023-01-01T09:08:26;10.70;99.90
23731;DHT22;12046;44.702;10.622;2023-01-01T09:10:55;10.70;99.90
23731;DHT22;12046;44.702;10.622;2023-01-01T09:13:22;10.70;99.90
23731;DHT22;12046;44.702;10.622;2023-01-01T09:15:48;10.60;99.90
23731;DHT22;12046;44.702;10.622;2023-01-01T09:18:13;10.60;99.90
23731;DHT22;12046;44.702;10.622;2023-01-01T09:20:39;10.70;99.90
23731;DHT22;12046;44.702;10.622;2023-01-01T09:23:06;10.90;99.90
23731;DHT22;12046;44.702;10.622;2023-01-01T09:25:33;11.00;99.90
23731;DHT22;12046;44.702;10.622;2023-01-01T09:27:59;11.00;99.90
23731;DHT22;12046;44.702;10.622;2023-01-01T09:30:26;11.20;99.90
23731;DHT22;12046;44.702;10.622;2023-01-01T09:32:52;11.50;99.90
23731;DHT22;12046;44.702;10.622;2023-01-01T09:35:18;12.10;99.90
23731;DHT22;12046;44.702;10.622;2023-01-01T09:37:49;12.30;99.90
23731;DHT22;12046;44.702;10.622;2023-01-01T09:42:50;12.50;99.90
23731;DHT22;12046;44.702;10.622;2023-01-01T09:45:24;12.30;99.90
23731;DHT22;12046;44.702;10.622;2023-01-01T09:47:55;12.00;99.90
23731;DHT22;12046;44.702;10.622;2023-01-01T09:50:28;11.90;99.90
23731;DHT22;12046;44.702;10.622;2023-01-01T09:52:58;11.80;99.90
23731;DHT22;12046;44.702;10.622;2023-01-01T09:55:33;11.60;99.90
23731;DHT22;12046;44.702;10.622;2023-01-01T09:58:03;11.50;99.90
23731;DHT22;12046;44.702;10.622;2023-01-01T10:00:31;11.30;99.90
23731;DHT22;12046;44.702;10.622;2023-01-01T10:03:06;11.30;99.90
23731;DHT22;12046;44.702;10.622;2023-01-01T10:08:48;11.40;99.90
23731;DHT22;12046;44.702;10.622;2023-01-01T10:11:31;11.40;99.90
23731;DHT22;12046;44.702;10.622;2023-01-01T10:13:59;11.40;99.90
23731;DHT22;12046;44.702;10.622;2023-01-01T10:16:39;11.50;99.90
23731;DHT22;12046;44.702;10.622;2023-01-01T10:21:53;11.60;99.90
23731;DHT22;12046;44.702;10.622;2023-01-01T10:24:40;11.60;99.90
23731;DHT22;12046;44.702;10.622;2023-01-01T10:27:30;11.50;99.90
23731;DHT22;12046;44.702;10.622;2023-01-01T10:30:01;11.50;99.90
23731;DHT22;12046;44.702;10.622;2023-01-01T10:32:31;11.70;99.90
23731;DHT22;12046;44.702;10.622;2023-01-01T10:34:58;11.80;99.90
23731;DHT22;12046;44.702;10.622;2023-01-01T10:37:32;11.90;99.90
23731;DHT22;12046;44.702;10.622;2023-01-01T10:40:04;11.90;99.90
23731;DHT22;12046;44.702;10.622;2023-01-01T10:42:31;11.90;99.90
23731;DHT22;12046;44.702;10.622;2023-01-01T10:44:57;12.00;99.90
23731;DHT22;12046;44.702;10.622;2023-01-01T10:47:29;12.00;99.90
23731;DHT22;12046;44.702;10.622;2023-01-01T10:49:59;12.10;99.90
23731;DHT22;12046;44.702;10.622;2023-01-01T10:52:35;12.10;99.90
23731;DHT22;12046;44.702;10.622;2023-01-01T10:55:02;12.10;99.90
23731;DHT22;12046;44.702;10.622;2023-01-01T10:57:29;12.10;99.90
23731;DHT22;12046;44.702;10.622;2023-01-01T11:00:10;12.20;99.90
23731;DHT22;12046;44.702;10.622;2023-01-01T11:02:36;12.40;99.90
23731;DHT22;12046;44.702;10.622;2023-01-01T11:05:19;12.80;99.90
23731;DHT22;12046;44.702;10.622;2023-01-01T11:07:45;12.90;99.90
23731;DHT22;12046;44.702;10.622;2023-01-01T11:12:42;12.90;99.90
23731;DHT22;12046;44.702;10.622;2023-01-01T11:15:24;12.80;99.90
23731;DHT22;12046;44.702;10.622;2023-01-01T11:18:05;12.70;99.90
23731;DHT22;12046;44.702;10.622;2023-01-01T11:20:35;12.70;99.90
23731;DHT22;12046;44.702;10.622;2023-01-01T11:23:18;12.60;99.90
23731;DHT22;12046;44.702;10.622;2023-01-01T11:28:28;12.50;99.90
23731;DHT22;12046;44.702;10.622;2023-01-01T11:31:16;12.50;99.90
23731;DHT22;12046;44.702;10.622;2023-01-01T11:33:53;12.60;99.90
23731;DHT22;12046;44.702;10.622;2023-01-01T11:36:33;12.50;99.90
23731;DHT22;12046;44.702;10.622;2023-01-01T11:39:21;12.40;99.90
23731;DHT22;12046;44.702;10.622;2023-01-01T11:41:59;12.40;99.90
23731;DHT22;12046;44.702;10.622;2023-01-01T11:44:34;12.30;99.90
23731;DHT22;12046;44.702;10.622;2023-01-01T11:47:35;12.30;99.90
23731;DHT22;12046;44.702;10.622;2023-01-01T11:50:24;12.30;99.90
23731;DHT22;12046;44.702;10.622;2023-01-01T11:53:26;12.30;99.90
23731;DHT22;12046;44.702;10.622;2023-01-01T11:58:53;12.30;99.90
23731;DHT22;12046;44.702;10.622;2023-01-01T12:02:31;12.30;99.90
23731;DHT22;12046;44.702;10.622;2023-01-01T12:04:39;12.20;99.90
23731;DHT22;12046;44.702;10.622;2023-01-01T12:07:13;11.90;99.90
23731;DHT22;12046;44.702;10.622;2023-01-01T12:10:29;11.90;99.90
23731;DHT22;12046;44.702;10.622;2023-01-01T12:13:00;11.80;99.90
23731;DHT22;12046;44.702;10.622;2023-01-01T12:21:02;11.90;99.90
23731;DHT22;12046;44.702;10.622;2023-01-01T12:23:33;12.00;99.90
23731;DHT22;12046;44.702;10.622;2023-01-01T12:28:41;12.00;99.90
23731;DHT22;12046;44.702;10.622;2023-01-01T12:34:15;12.10;99.90
23731;DHT22;12046;44.702;10.622;2023-01-01T12:36:49;12.20;99.90
23731;DHT22;12046;44.702;10.622;2023-01-01T12:42:38;12.20;99.90
23731;DHT22;12046;44.702;10.622;2023-01-01T12:45:14;12.20;99.90
23731;DHT22;12046;44.702;10.622;2023-01-01T12:52:59;12.30;99.90
23731;DHT22;12046;44.702;10.622;2023-01-01T12:59:12;12.40;99.90
23731;DHT22;12046;44.702;10.622;2023-01-01T13:01:31;12.50;99.90
23731;DHT22;12046;44.702;10.622;2023-01-01T13:04:13;12.50;99.90
23731;DHT22;12046;44.702;10.622;2023-01-01T13:06:55;12.50;99.90
23731;DHT22;12046;44.702;10.622;2023-01-01T13:09:36;12.50;99.90
23731;DHT22;12046;44.702;10.622;2023-01-01T13:12:10;12.60;99.90
23731;DHT22;12046;44.702;10.622;2023-01-01T13:14:41;12.60;99.90
23731;DHT22;12046;44.702;10.622;2023-01-01T13:17:24;12.60;99.90
23731;DHT22;12046;44.702;10.622;2023-01-01T13:20:21;12.60;99.90
23731;DHT22;12046;44.702;10.622;2023-01-01T13:22:48;12.70;99.90
23731;DHT22;12046;44.702;10.622;2023-01-01T13:28:01;12.90;99.90
23731;DHT22;12046;44.702;10.622;2023-01-01T13:41:32;12.70;99.90
23731;DHT22;12046;44.702;10.622;2023-01-01T13:46:47;12.70;99.90
23731;DHT22;12046;44.702;10.622;2023-01-01T13:52:04;12.70;99.90
23731;DHT22;12046;44.702;10.622;2023-01-01T14:00:22;12.70;99.90
23731;DHT22;12046;44.702;10.622;2023-01-01T14:02:53;12.80;99.90
23731;DHT22;12046;44.702;10.622;2023-01-01T14:07:55;12.70;99.90
23731;DHT22;12046;44.702;10.622;2023-01-01T14:10:26;12.60;99.90
23731;DHT22;12046;44.702;10.622;2023-01-01T14:15:34;12.50;99.90
23731;DHT22;12046;44.702;10.622;2023-01-01T14:18:04;12.50;99.90
23731;DHT22;12046;44.702;10.622;2023-01-01T14:20:40;12.50;99.90
23731;DHT22;12046;44.702;10.622;2023-01-01T14:23:33;12.50;99.90
23731;DHT22;12046;44.702;10.622;2023-01-01T14:26:19;12.50;99.90
23731;DHT22;12046;44.702;10.622;2023-01-01T14:28:46;12.40;99.90
23731;DHT22;12046;44.702;10.622;2023-01-01T14:31:19;12.40;99.90
23731;DHT22;12046;44.702;10.622;2023-01-01T14:33:46;12.40;99.90
23731;DHT22;12046;44.702;10.622;2023-01-01T14:36:29;12.40;99.90
23731;DHT22;12046;44.702;10.622;2023-01-01T14:38:57;12.30;99.90
23731;DHT22;12046;44.702;10.622;2023-01-01T14:41:33;12.40;99.90
23731;DHT22;12046;44.702;10.622;2023-01-01T14:44:15;12.30;99.90
23731;DHT22;12046;44.702;10.622;2023-01-01T14:46:53;12.40;99.90
23731;DHT22;12046;44.702;10.622;2023-01-01T14:49:39;12.40;99.90
23731;DHT22;12046;44.702;10.622;2023-01-01T14:52:14;12.30;99.90
23731;DHT22;12046;44.702;10.622;2023-01-01T14:54:45;12.40;99.90
23731;DHT22;12046;44.702;10.622;2023-01-01T14:57:18;12.30;99.90
23731;DHT22;12046;44.702;10.622;2023-01-01T14:59:46;12.30;99.90
23731;DHT22;12046;44.702;10.622;2023-01-01T15:02:16;12.30;99.90
23731;DHT22;12046;44.702;10.622;2023-01-01T15:04:42;12.30;99.90
23731;DHT22;12046;44.702;10.622;2023-01-01T15:09:45;12.20;99.90
23731;DHT22;12046;44.702;10.622;2023-01-01T15:12:13;12.20;99.90
23731;DHT22;12046;44.702;10.622;2023-01-01T15:14:41;12.10;99.90
23731;DHT22;12046;44.702;10.622;2023-01-01T15:17:17;12.10;99.90
23731;DHT22;12046;44.702;10.622;2023-01-01T15:19:58;12.00;99.90
23731;DHT22;12046;44.702;10.622;2023-01-01T15:22:30;12.00;99.90
23731;DHT22;12046;44.702;10.622;2023-01-01T15:24:57;11.90;99.90
23731;DHT22;12046;44.702;10.622;2023-01-01T15:27:27;11.90;99.90
23731;DHT22;12046;44.702;10.622;2023-01-01T15:29:54;12.00;99.90
23731;DHT22;12046;44.702;10.622;2023-01-01T15:32:29;11.90;99.90
23731;DHT22;12046;44.702;10.622;2023-01-01T15:34:58;11.90;99.90
23731;DHT22;12046;44.702;10.622;2023-01-01T15:37:44;11.90;99.90
23731;DHT22;12046;44.702;10.622;2023-01-01T15:43:04;11.80;99.90
23731;DHT22;12046;44.702;10.622;2023-01-01T15:45:37;11.80;99.90
23731;DHT22;12046;44.702;10.622;2023-01-01T15:50:36;11.80;99.90
23731;DHT22;12046;44.702;10.622;2023-01-01T15:53:22;11.80;99.90
23731;DHT22;12046;44.702;10.622;2023-01-01T15:55:59;11.70;99.90
23731;DHT22;12046;44.702;10.622;2023-01-01T15:58:32;11.80;99.90
23731;DHT22;12046;44.702;10.622;2023-01-01T16:01:04;11.80;99.90
23731;DHT22;12046;44.702;10.622;2023-01-01T16:03:32;11.80;99.90
23731;DHT22;12046;44.702;10.622;2023-01-01T16:05:59;11.80;99.90
23731;DHT22;12046;44.702;10.622;2023-01-01T16:08:25;11.80;99.90
23731;DHT22;12046;44.702;10.622;2023-01-01T16:10:51;11.80;99.90
23731;DHT22;12046;44.702;10.622;2023-01-01T16:13:18;11.70;99.90
23731;DHT22;12046;44.702;10.622;2023-01-01T16:16:01;11.70;99.90
23731;DHT22;12046;44.702;10.622;2023-01-01T16:18:32;11.70;99.90
23731;DHT22;12046;44.702;10.622;2023-01-01T16:20:59;11.70;99.90
23731;DHT22;12046;44.702;10.622;2023-01-01T16:23:26;11.70;99.90
23731;DHT22;12046;44.702;10.622;2023-01-01T16:25:52;11.70;99.90
23731;DHT22;12046;44.702;10.622;2023-01-01T16:28:18;11.60;99.90
23731;DHT22;12046;44.702;10.622;2023-01-01T16:30:44;11.60;99.90
23731;DHT22;12046;44.702;10.622;2023-01-01T16:33:15;11.50;99.90
23731;DHT22;12046;44.702;10.622;2023-01-01T16:35:42;11.50;99.90
23731;DHT22;12046;44.702;10.622;2023-01-01T16:38:08;11.50;99.90
23731;DHT22;12046;44.702;10.622;2023-01-01T16:40:34;11.50;99.90
23731;DHT22;12046;44.702;10.622;2023-01-01T16:43:01;11.50;99.90
23731;DHT22;12046;44.702;10.622;2023-01-01T16:45:27;11.60;99.90
23731;DHT22;12046;44.702;10.622;2023-01-01T16:47:53;11.60;99.90
23731;DHT22;12046;44.702;10.622;2023-01-01T16:50:20;11.60;99.90
23731;DHT22;12046;44.702;10.622;2023-01-01T16:52:46;11.50;99.90
23731;DHT22;12046;44.702;10.622;2023-01-01T16:55:13;11.50;99.90
23731;DHT22;12046;44.702;10.622;2023-01-01T16:57:39;11.60;99.90
23731;DHT22;12046;44.702;10.622;2023-01-01T17:00:06;11.50;99.90
23731;DHT22;12046;44.702;10.622;2023-01-01T17:02:34;11.50;99.90
23731;DHT22;12046;44.702;10.622;2023-01-01T17:05:00;11.50;99.90
23731;DHT22;12046;44.702;10.622;2023-01-01T17:07:26;11.50;99.90
23731;DHT22;12046;44.702;10.622;2023-01-01T17:09:52;11.50;99.90
23731;DHT22;12046;44.702;10.622;2023-01-01T17:12:18;11.50;99.90
23731;DHT22;12046;44.702;10.622;2023-01-01T17:14:44;11.50;99.90
23731;DHT22;12046;44.702;10.622;2023-01-01T17:17:11;11.50;99.90
23731;DHT22;12046;44.702;10.622;2023-01-01T17:19:37;11.50;99.90
23731;DHT22;12046;44.702;10.622;2023-01-01T17:22:03;11.50;99.90
23731;DHT22;12046;44.702;10.622;2023-01-01T17:24:30;11.50;99.90
23731;DHT22;12046;44.702;10.622;2023-01-01T17:26:56;11.50;99.90
23731;DHT22;12046;44.702;10.622;2023-01-01T17:29:23;11.50;99.90